createdAt,value
2022-07-27T00:02:03.589Z,101130.63
2022-07-27T00:04:50.543Z,101119.97
2022-07-27T00:07:38.708Z,101121.91
2022-07-27T00:10:25.127Z,101127.25
2022-07-27T00:13:11.932Z,101127.50
2022-07-27T00:15:59.050Z,101129.56
2022-07-27T00:18:45.523Z,101131.75
2022-07-27T00:21:32.324Z,101131.91
2022-07-27T00:24:20.488Z,101129.59
2022-07-27T00:27:08.320Z,101125.56
2022-07-27T00:29:58.873Z,101127.66
2022-07-27T00:32:46.728Z,101121.22
2022-07-27T00:35:33.431Z,101135.75
2022-07-27T00:38:22.474Z,101127.16
2022-07-27T00:41:11.340Z,101136.38
2022-07-27T00:43:59.157Z,101135.78
2022-07-27T00:46:45.632Z,101137.16
2022-07-27T00:49:32.391Z,101143.44
2022-07-27T00:52:19.642Z,101144.63
2022-07-27T00:55:08.567Z,101139.09
2022-07-27T00:57:59.548Z,101137.25
2022-07-27T01:00:46.929Z,101136.06
2022-07-27T01:03:33.445Z,101138.28
2022-07-27T01:06:27.012Z,101139.09
2022-07-27T01:09:31.512Z,101145.94
2022-07-27T01:12:21.718Z,101149.13
2022-07-27T01:15:10.897Z,101147.72
2022-07-27T01:17:57.755Z,101152.63
2022-07-27T01:20:44.613Z,101152.97
2022-07-27T01:23:33.647Z,101143.59
2022-07-27T01:26:20.005Z,101149.97
2022-07-27T01:29:08.953Z,101144.84
2022-07-27T01:31:57.649Z,101151.41
2022-07-27T01:34:45.045Z,101162.00
2022-07-27T01:37:33.905Z,101159.91
2022-07-27T01:40:22.949Z,101164.66
2022-07-27T01:43:10.057Z,101162.34
2022-07-27T01:45:57.101Z,101163.31
2022-07-27T01:48:43.828Z,101153.97
2022-07-27T01:51:30.452Z,101144.47
2022-07-27T01:54:17.256Z,101153.50
2022-07-27T01:57:05.676Z,101140.28
2022-07-27T01:59:53.888Z,101146.63
2022-07-27T02:02:41.348Z,101140.53
2022-07-27T02:05:28.413Z,101144.34
2022-07-27T02:08:15.224Z,101140.00
2022-07-27T02:11:19.828Z,101151.78
2022-07-27T02:14:07.792Z,101144.88
2022-07-27T02:16:54.672Z,101155.78
2022-07-27T02:19:42.164Z,101146.25
2022-07-27T02:22:29.332Z,101141.78
2022-07-27T02:25:19.015Z,101143.78
2022-07-27T02:28:06.171Z,101145.53
2022-07-27T02:30:55.748Z,101143.78
2022-07-27T02:33:42.548Z,101146.53
2022-07-27T02:36:30.045Z,101141.44
2022-07-27T02:39:16.910Z,101141.19
2022-07-27T02:42:05.440Z,101149.22
2022-07-27T02:44:52.885Z,101153.56
2022-07-27T02:47:41.806Z,101145.00
2022-07-27T02:50:29.924Z,101159.56
2022-07-27T02:53:17.240Z,101148.44
2022-07-27T02:56:04.180Z,101155.38
2022-07-27T02:58:51.131Z,101153.75
2022-07-27T03:01:39.613Z,101157.38
2022-07-27T03:04:28.063Z,101158.03
2022-07-27T03:07:14.947Z,101153.28
2022-07-27T03:10:01.993Z,101149.78
2022-07-27T03:12:48.505Z,101152.81
2022-07-27T03:15:35.643Z,101157.91
2022-07-27T03:18:22.058Z,101157.97
2022-07-27T03:21:10.156Z,101160.69
2022-07-27T03:23:57.895Z,101166.00
2022-07-27T03:26:44.624Z,101166.72
2022-07-27T03:29:31.503Z,101176.56
2022-07-27T03:32:18.354Z,101169.56
2022-07-27T03:35:05.518Z,101159.88
2022-07-27T03:37:53.847Z,101165.53
2022-07-27T03:40:41.711Z,101164.72
2022-07-27T03:43:28.254Z,101167.41
2022-07-27T03:46:15.073Z,101158.00
2022-07-27T03:49:02.124Z,101158.97
2022-07-27T03:52:01.312Z,101156.41
2022-07-27T03:54:49.637Z,101146.63
2022-07-27T03:57:36.113Z,101166.47
2022-07-27T04:00:23.400Z,101164.81
2022-07-27T04:03:09.945Z,101169.13
2022-07-27T04:05:56.762Z,101170.78
2022-07-27T04:08:43.442Z,101163.59
2022-07-27T04:11:31.519Z,101174.06
2022-07-27T04:14:18.382Z,101171.94
2022-07-27T04:17:05.111Z,101181.41
2022-07-27T04:19:51.880Z,101174.84
2022-07-27T04:22:38.434Z,101172.16
2022-07-27T04:25:25.213Z,101180.38
2022-07-27T04:28:13.198Z,101174.72
2022-07-27T04:31:00.153Z,101178.00
2022-07-27T04:33:47.047Z,101178.59
2022-07-27T04:36:33.635Z,101175.59
2022-07-27T04:39:20.659Z,101180.50
2022-07-27T04:42:07.771Z,101172.97
2022-07-27T04:44:55.591Z,101171.78
2022-07-27T04:47:42.360Z,101174.13
2022-07-27T04:50:29.235Z,101178.56
2022-07-27T04:53:18.094Z,101168.50
2022-07-27T04:56:04.961Z,101178.22
2022-07-27T04:58:52.857Z,101182.56
2022-07-27T05:01:43.714Z,101180.38
2022-07-27T05:04:32.580Z,101177.16
2022-07-27T05:07:19.775Z,101177.06
2022-07-27T05:10:08.494Z,101172.78
2022-07-27T05:12:56.918Z,101170.97
2022-07-27T05:15:54.117Z,101165.28
2022-07-27T05:18:43.642Z,101171.88
2022-07-27T05:21:30.331Z,101172.66
2022-07-27T05:24:17.016Z,101178.34
2022-07-27T05:27:06.391Z,101181.81
2022-07-27T05:29:53.030Z,101180.81
2022-07-27T05:32:43.946Z,101171.47
2022-07-27T05:35:32.273Z,101189.84
2022-07-27T05:38:18.993Z,101187.03
2022-07-27T05:41:11.426Z,101195.84
2022-07-27T05:43:57.819Z,101187.50
2022-07-27T05:46:44.745Z,101190.94
2022-07-27T05:49:32.147Z,101193.94
2022-07-27T05:52:20.997Z,101192.00
2022-07-27T05:55:08.596Z,101191.78
2022-07-27T05:57:55.669Z,101198.03
2022-07-27T06:00:43.869Z,101204.47
2022-07-27T06:03:31.214Z,101190.91
2022-07-27T06:06:44.394Z,101211.47
2022-07-27T06:09:35.756Z,101213.53
2022-07-27T06:12:23.055Z,101221.00
2022-07-27T06:15:19.767Z,101222.69
2022-07-27T06:18:09.133Z,101222.91
2022-07-27T06:20:55.973Z,101220.34
2022-07-27T06:23:42.912Z,101224.19
2022-07-27T06:26:31.017Z,101225.69
2022-07-27T06:29:17.647Z,101230.03
2022-07-27T06:32:04.670Z,101235.44
2022-07-27T06:34:51.861Z,101226.25
2022-07-27T06:37:44.120Z,101223.41
2022-07-27T06:40:32.301Z,101229.09
2022-07-27T06:43:21.196Z,101229.00
2022-07-27T06:46:12.615Z,101218.31
2022-07-27T06:49:00.227Z,101225.25
2022-07-27T06:51:46.903Z,101212.63
2022-07-27T06:54:33.643Z,101211.19
2022-07-27T06:57:20.408Z,101201.34
2022-07-27T07:00:10.334Z,101201.16
2022-07-27T07:02:59.291Z,101204.47
2022-07-27T07:05:47.408Z,101213.41
2022-07-27T07:08:34.233Z,101206.81
2022-07-27T07:11:21.169Z,101206.66
2022-07-27T07:14:07.747Z,101214.81
2022-07-27T07:16:56.074Z,101206.97
2022-07-27T07:19:42.484Z,101227.53
2022-07-27T07:22:29.593Z,101226.34
2022-07-27T07:25:16.236Z,101225.94
2022-07-27T07:28:03.295Z,101223.41
2022-07-27T07:30:50.025Z,101228.53
2022-07-27T07:33:37.716Z,101232.41
2022-07-27T07:36:24.641Z,101223.50
2022-07-27T07:39:12.486Z,101233.91
2022-07-27T07:41:59.449Z,101243.53
2022-07-27T07:44:46.230Z,101241.94
2022-07-27T07:47:32.905Z,101243.66
2022-07-27T07:50:22.204Z,101255.88
2022-07-27T07:53:09.086Z,101243.41
2022-07-27T07:55:56.900Z,101243.41
2022-07-27T07:58:43.355Z,101248.38
2022-07-27T08:01:30.124Z,101247.84
2022-07-27T08:04:16.741Z,101241.84
2022-07-27T08:07:06.349Z,101246.25
2022-07-27T08:09:52.721Z,101252.72
2022-07-27T08:12:42.401Z,101250.28
2022-07-27T08:15:35.880Z,101248.75
2022-07-27T08:18:22.935Z,101244.34
2022-07-27T08:21:09.568Z,101255.75
2022-07-27T08:23:58.810Z,101254.94
2022-07-27T08:26:49.598Z,101249.59
2022-07-27T08:29:36.744Z,101253.31
2022-07-27T08:32:25.155Z,101250.53
2022-07-27T08:35:18.751Z,101242.03
2022-07-27T08:38:09.464Z,101239.13
2022-07-27T08:40:58.020Z,101246.38
2022-07-27T08:43:45.119Z,101256.94
2022-07-27T08:46:33.182Z,101246.09
2022-07-27T08:49:20.373Z,101247.16
2022-07-27T08:52:08.000Z,101255.44
2022-07-27T08:54:54.510Z,101254.50
2022-07-27T08:57:42.646Z,101260.75
2022-07-27T09:00:30.010Z,101264.13
2022-07-27T09:03:20.086Z,101261.47
2022-07-27T09:06:07.601Z,101263.59
2022-07-27T09:09:00.211Z,101258.81
2022-07-27T09:12:04.965Z,101251.22
2022-07-27T09:14:53.394Z,101254.75
2022-07-27T09:17:48.598Z,101257.47
2022-07-27T09:20:39.455Z,101261.47
2022-07-27T09:23:28.332Z,101255.84
2022-07-27T09:26:31.237Z,101260.31
2022-07-27T09:29:19.670Z,101272.78
2022-07-27T09:32:16.668Z,101263.69
2022-07-27T09:35:17.026Z,101266.69
2022-07-27T09:38:25.607Z,101272.16
2022-07-27T09:41:14.407Z,101265.31
2022-07-27T09:47:26.741Z,101257.88
2022-07-27T09:50:20.548Z,101263.41
2022-07-27T09:53:41.461Z,101257.13
2022-07-27T09:56:30.338Z,101255.16
2022-07-27T09:59:19.707Z,101253.72
2022-07-27T10:02:06.738Z,101256.50
2022-07-27T10:04:55.243Z,101256.00
2022-07-27T10:07:41.973Z,101252.38
2022-07-27T10:10:28.757Z,101256.94
2022-07-27T10:13:15.505Z,101244.97
2022-07-27T10:16:04.878Z,101250.78
2022-07-27T10:18:59.900Z,101244.13
2022-07-27T10:21:50.039Z,101236.84
2022-07-27T10:24:37.306Z,101243.25
2022-07-27T10:27:29.053Z,101245.34
2022-07-27T10:30:27.643Z,101244.66
2022-07-27T10:33:16.757Z,101254.72
2022-07-27T10:36:04.907Z,101255.09
2022-07-27T10:38:56.522Z,101246.31
2022-07-27T10:41:44.054Z,101256.06
2022-07-27T10:44:31.578Z,101259.22
2022-07-27T10:47:31.017Z,101257.00
2022-07-27T10:50:31.263Z,101258.72
2022-07-27T10:53:18.697Z,101253.53
2022-07-27T10:56:08.151Z,101253.28
2022-07-27T10:58:54.973Z,101256.72
2022-07-27T11:01:57.746Z,101257.56
2022-07-27T11:04:46.079Z,101255.06
2022-07-27T11:07:44.036Z,101247.28
2022-07-27T11:10:44.768Z,101244.50
2022-07-27T11:13:38.655Z,101243.66
2022-07-27T11:16:27.903Z,101247.88
2022-07-27T11:19:17.195Z,101250.09
2022-07-27T11:22:04.810Z,101242.75
2022-07-27T11:24:51.896Z,101242.94
2022-07-27T11:27:47.560Z,101245.59
2022-07-27T11:30:35.655Z,101244.09
2022-07-27T11:33:23.035Z,101242.97
2022-07-27T11:36:19.674Z,101249.97
2022-07-27T11:39:14.559Z,101239.38
2022-07-27T11:42:11.515Z,101249.78
2022-07-27T11:44:58.548Z,101243.44
2022-07-27T11:47:57.540Z,101244.41
2022-07-27T11:50:58.440Z,101252.59
2022-07-27T11:53:45.220Z,101238.63
2022-07-27T11:56:34.098Z,101234.94
2022-07-27T11:59:21.756Z,101238.91
2022-07-27T12:02:10.076Z,101230.84
2022-07-27T12:05:02.916Z,101237.09
2022-07-27T12:07:52.779Z,101235.16
2022-07-27T12:10:39.594Z,101241.59
2022-07-27T12:13:33.533Z,101237.72
2022-07-27T12:16:40.692Z,101233.22
2022-07-27T12:19:28.935Z,101238.50
2022-07-27T12:22:24.527Z,101231.53
2022-07-27T12:25:25.448Z,101229.72
2022-07-27T12:28:14.397Z,101236.16
2022-07-27T12:31:01.366Z,101223.22
2022-07-27T12:33:48.313Z,101217.97
2022-07-27T12:36:35.094Z,101223.59
2022-07-27T12:39:30.451Z,101237.19
2022-07-27T12:42:17.094Z,101220.75
2022-07-27T12:45:18.914Z,101222.94
2022-07-27T12:48:09.893Z,101219.91
2022-07-27T12:51:01.968Z,101224.31
2022-07-27T12:53:48.555Z,101228.94
2022-07-27T12:56:36.690Z,101226.38
2022-07-27T12:59:23.845Z,101234.06
2022-07-27T13:02:10.263Z,101237.38
2022-07-27T13:04:57.080Z,101236.09
2022-07-27T13:07:46.141Z,101232.22
2022-07-27T13:10:33.375Z,101231.81
2022-07-27T13:13:24.652Z,101234.59
2022-07-27T13:16:11.756Z,101231.47
2022-07-27T13:18:58.348Z,101234.47
2022-07-27T13:21:45.087Z,101233.19
2022-07-27T13:24:32.188Z,101235.34
2022-07-27T13:27:18.537Z,101233.16
2022-07-27T13:30:09.570Z,101230.81
2022-07-27T13:32:56.974Z,101239.75
2022-07-27T13:35:43.796Z,101239.19
2022-07-27T13:38:33.596Z,101235.53
2022-07-27T13:41:20.168Z,101231.53
2022-07-27T13:44:08.652Z,101235.06
2022-07-27T13:46:58.311Z,101235.16
2022-07-27T13:49:45.528Z,101235.91
2022-07-27T13:52:32.211Z,101239.25
2022-07-27T13:55:20.703Z,101237.22
2022-07-27T13:58:11.936Z,101246.78
2022-07-27T14:01:02.776Z,101236.78
2022-07-27T14:03:55.111Z,101238.72
2022-07-27T14:06:42.152Z,101238.72
2022-07-27T14:09:42.838Z,101242.38
2022-07-27T14:12:29.420Z,101241.19
2022-07-27T14:15:16.637Z,101242.72
2022-07-27T14:18:03.267Z,101244.00
2022-07-27T14:20:51.418Z,101235.03
2022-07-27T14:23:38.481Z,101234.72
2022-07-27T14:26:24.929Z,101229.34
2022-07-27T14:29:11.625Z,101244.84
2022-07-27T14:31:58.607Z,101240.72
2022-07-27T14:34:45.152Z,101238.03
2022-07-27T14:37:34.350Z,101241.38
2022-07-27T14:40:21.428Z,101236.22
2022-07-27T14:43:15.030Z,101240.22
2022-07-27T14:46:03.049Z,101225.16
2022-07-27T14:49:05.617Z,101227.66
2022-07-27T14:51:52.924Z,101241.44
2022-07-27T14:54:41.129Z,101236.16
2022-07-27T14:57:29.785Z,101239.13
2022-07-27T15:00:19.313Z,101221.22
2022-07-27T15:03:07.325Z,101233.16
2022-07-27T15:05:53.986Z,101233.88
2022-07-27T15:08:40.713Z,101240.63
2022-07-27T15:11:28.804Z,101236.34
2022-07-27T15:14:18.588Z,101232.75
2022-07-27T15:17:05.911Z,101227.06
2022-07-27T15:19:54.189Z,101234.19
2022-07-27T15:22:41.423Z,101236.59
2022-07-27T15:25:28.287Z,101242.31
2022-07-27T15:28:16.824Z,101241.53
2022-07-27T15:31:03.499Z,101236.88
2022-07-27T15:33:50.189Z,101225.50
2022-07-27T15:36:43.703Z,101234.78
2022-07-27T15:39:31.339Z,101228.28
2022-07-27T15:42:18.193Z,101231.28
2022-07-27T15:45:07.351Z,101227.00
2022-07-27T15:47:53.827Z,101229.59
2022-07-27T15:50:42.917Z,101230.75
2022-07-27T15:53:30.084Z,101231.69
2022-07-27T15:56:16.784Z,101223.03
2022-07-27T15:59:03.277Z,101228.31
2022-07-27T16:01:51.406Z,101230.03
2022-07-27T16:04:40.094Z,101222.69
2022-07-27T16:07:40.714Z,101223.59
2022-07-27T16:10:30.682Z,101217.69
2022-07-27T16:13:18.798Z,101223.03
2022-07-27T16:16:26.124Z,101219.94
2022-07-27T16:19:14.508Z,101219.69
2022-07-27T16:22:03.821Z,101210.97
2022-07-27T16:24:51.164Z,101212.69
2022-07-27T16:27:40.689Z,101201.88
2022-07-27T16:30:33.996Z,101205.94
2022-07-27T16:33:24.767Z,101207.13
2022-07-27T16:36:13.112Z,101197.44
2022-07-27T16:38:59.988Z,101198.59
2022-07-27T16:41:47.364Z,101199.44
2022-07-27T16:44:35.574Z,101198.34
2022-07-27T16:47:22.501Z,101188.22
2022-07-27T16:50:09.802Z,101189.56
2022-07-27T16:52:57.819Z,101185.59
2022-07-27T16:55:47.202Z,101185.22
2022-07-27T16:58:36.601Z,101181.66
2022-07-27T17:01:26.155Z,101195.94
2022-07-27T17:04:14.217Z,101193.84
2022-07-27T17:07:00.583Z,101196.09
2022-07-27T17:09:49.104Z,101193.00
2022-07-27T17:12:38.844Z,101189.75
2022-07-27T17:15:28.717Z,101185.81
2022-07-27T17:18:16.219Z,101193.59
2022-07-27T17:21:06.128Z,101187.66
2022-07-27T17:23:59.063Z,101191.38
2022-07-27T17:26:47.595Z,101183.31
2022-07-27T17:29:34.462Z,101189.13
2022-07-27T17:32:21.199Z,101189.22
2022-07-27T17:35:08.724Z,101184.03
2022-07-27T17:38:05.996Z,101183.13
2022-07-27T17:40:53.177Z,101188.31
2022-07-27T17:43:41.795Z,101186.84
2022-07-27T17:46:28.786Z,101177.31
2022-07-27T17:49:15.943Z,101183.44
2022-07-27T17:52:03.315Z,101180.41
2022-07-27T17:54:50.108Z,101160.50
2022-07-27T17:57:36.872Z,101186.25
2022-07-27T18:00:24.929Z,101186.63
2022-07-27T18:03:13.069Z,101168.53
2022-07-27T18:06:00.390Z,101189.81
2022-07-27T18:08:46.866Z,101196.44
2022-07-27T18:11:33.706Z,101198.56
2022-07-27T18:14:21.654Z,101203.69
2022-07-27T18:17:09.625Z,101201.63
2022-07-27T18:19:56.369Z,101200.44
2022-07-27T18:22:43.763Z,101203.59
2022-07-27T18:25:30.722Z,101207.75
2022-07-27T18:28:17.811Z,101209.03
2022-07-27T18:31:05.252Z,101212.22
2022-07-27T18:33:54.555Z,101209.25
2022-07-27T18:36:42.584Z,101212.44
2022-07-27T18:39:32.408Z,101211.94
2022-07-27T18:42:20.537Z,101215.19
2022-07-27T18:45:08.443Z,101210.34
2022-07-27T18:47:55.403Z,101222.09
2022-07-27T18:50:43.467Z,101221.81
2022-07-27T18:53:30.294Z,101223.69
2022-07-27T18:56:17.291Z,101225.97
2022-07-27T18:59:04.114Z,101228.25
2022-07-27T19:01:52.415Z,101232.00
2022-07-27T19:04:41.716Z,101231.53
2022-07-27T19:07:31.027Z,101235.41
2022-07-27T19:10:20.921Z,101237.69
2022-07-27T19:13:08.597Z,101243.16
2022-07-27T19:15:55.027Z,101246.75
2022-07-27T19:18:42.115Z,101249.53
2022-07-27T19:21:28.606Z,101251.34
2022-07-27T19:24:16.664Z,101256.59
2022-07-27T19:27:03.590Z,101264.03
2022-07-27T19:29:51.507Z,101267.31
2022-07-27T19:32:38.161Z,101263.97
2022-07-27T19:35:24.917Z,101267.88
2022-07-27T19:38:13.222Z,101271.78
2022-07-27T19:41:02.250Z,101273.81
2022-07-27T19:43:49.003Z,101279.28
2022-07-27T19:46:36.292Z,101279.53
2022-07-27T19:49:24.235Z,101276.09
2022-07-27T19:52:15.527Z,101287.00
2022-07-27T19:55:02.015Z,101282.84
2022-07-27T19:57:52.544Z,101281.56
2022-07-27T20:00:39.673Z,101291.22
2022-07-27T20:03:26.756Z,101292.34
2022-07-27T20:06:14.815Z,101291.53
2022-07-27T20:09:01.652Z,101302.34
2022-07-27T20:11:49.785Z,101301.03
2022-07-27T20:14:38.798Z,101311.84
2022-07-27T20:17:25.565Z,101308.47
2022-07-27T20:20:13.518Z,101315.22
2022-07-27T20:23:00.431Z,101327.72
2022-07-27T20:25:47.107Z,101336.03
2022-07-27T20:28:33.787Z,101333.53
2022-07-27T20:31:23.293Z,101336.34
2022-07-27T20:34:12.436Z,101325.22
2022-07-27T20:37:01.936Z,101336.50
2022-07-27T20:39:49.511Z,101334.88
2022-07-27T20:42:36.025Z,101336.00
2022-07-27T20:45:26.914Z,101345.94
2022-07-27T20:48:15.116Z,101343.22
2022-07-27T20:51:01.885Z,101341.03
2022-07-27T20:53:48.996Z,101343.19
2022-07-27T20:56:36.053Z,101352.09
2022-07-27T20:59:23.149Z,101353.66
2022-07-27T21:02:10.083Z,101356.59
2022-07-27T21:04:58.741Z,101356.66
2022-07-27T21:07:46.592Z,101361.25
2022-07-27T21:10:34.020Z,101362.31
2022-07-27T21:13:20.453Z,101361.78
2022-07-27T21:16:08.707Z,101359.25
2022-07-27T21:18:57.165Z,101362.16
2022-07-27T21:21:45.775Z,101365.09
2022-07-27T21:24:32.264Z,101368.78
2022-07-27T21:27:21.323Z,101369.00
2022-07-27T21:30:08.929Z,101368.28
2022-07-27T21:32:55.703Z,101380.00
2022-07-27T21:35:42.663Z,101373.06
2022-07-27T21:38:31.108Z,101385.53
2022-07-27T21:41:17.907Z,101380.50
2022-07-27T21:44:05.591Z,101385.00
2022-07-27T21:46:52.964Z,101383.50
2022-07-27T21:49:39.793Z,101393.34
2022-07-27T21:52:26.898Z,101387.41
2022-07-27T21:55:22.768Z,101391.13
2022-07-27T21:58:12.272Z,101393.91
2022-07-27T22:00:59.015Z,101398.47
2022-07-27T22:03:46.107Z,101390.63
2022-07-27T22:06:32.595Z,101396.91
2022-07-27T22:09:20.213Z,101402.31
2022-07-27T22:12:08.801Z,101406.94
2022-07-27T22:14:55.511Z,101407.03
2022-07-27T22:17:46.016Z,101405.41
2022-07-27T22:20:37.094Z,101419.75
2022-07-27T22:23:23.852Z,101412.84
2022-07-27T22:26:10.824Z,101412.13
2022-07-27T22:28:59.101Z,101418.38
2022-07-27T22:31:45.848Z,101418.47
2022-07-27T22:34:34.356Z,101426.53
2022-07-27T22:37:21.673Z,101423.06
2022-07-27T22:40:10.547Z,101427.50
2022-07-27T22:42:57.484Z,101432.00
2022-07-27T22:45:45.888Z,101417.03
2022-07-27T22:48:32.781Z,101422.41
2022-07-27T22:51:19.587Z,101421.47
2022-07-27T22:54:06.389Z,101428.03
2022-07-27T22:56:53.506Z,101428.34
2022-07-27T22:59:40.250Z,101429.44
2022-07-27T23:02:29.239Z,101434.00
2022-07-27T23:05:16.334Z,101432.44
2022-07-27T23:08:03.050Z,101439.63
2022-07-27T23:10:49.808Z,101443.16
2022-07-27T23:13:36.996Z,101429.25
2022-07-27T23:16:23.959Z,101441.38
2022-07-27T23:19:12.343Z,101440.38
2022-07-27T23:22:01.504Z,101438.63
2022-07-27T23:24:48.711Z,101435.13
2022-07-27T23:27:35.861Z,101438.00
2022-07-27T23:30:22.812Z,101448.03
2022-07-27T23:33:09.546Z,101446.44
2022-07-27T23:35:57.740Z,101451.00
2022-07-27T23:38:44.415Z,101445.09
2022-07-27T23:41:31.129Z,101438.13
2022-07-27T23:44:17.841Z,101441.47
2022-07-27T23:47:05.693Z,101450.31
2022-07-27T23:49:52.227Z,101447.50
2022-07-27T23:52:40.540Z,101447.63
2022-07-27T23:55:27.407Z,101443.38
2022-07-27T23:58:14.294Z,101449.66
